createdAt,value
2017-09-04T00:00:18.124Z,25.8
2017-09-04T00:01:19.913Z,25.7
2017-09-04T00:02:21.714Z,25.7
2017-09-04T00:03:23.489Z,25.6
2017-09-04T00:04:25.615Z,25.6
2017-09-04T00:05:27.410Z,25.7
2017-09-04T00:06:28.849Z,25.7
2017-09-04T00:07:30.644Z,25.7
2017-09-04T00:08:32.438Z,25.7
2017-09-04T00:09:33.548Z,25.6
2017-09-04T00:10:35.001Z,25.7
2017-09-04T00:11:37.128Z,25.6
2017-09-04T00:12:38.567Z,25.7
2017-09-04T00:13:40.362Z,25.6
2017-09-04T00:14:42.158Z,25.7
2017-09-04T00:15:44.293Z,25.7
2017-09-04T00:16:46.420Z,25.7
2017-09-04T00:17:48.218Z,25.7
2017-09-04T00:18:50.346Z,25.7
2017-09-04T00:19:52.475Z,25.7
2017-09-04T00:20:54.604Z,25.7
2017-09-04T00:21:56.397Z,25.7
2017-09-04T00:22:58.534Z,25.7
2017-09-04T00:24:00.325Z,25.6
2017-09-04T00:25:02.120Z,25.7
2017-09-04T00:26:03.224Z,25.7
2017-09-04T00:27:04.687Z,25.7
2017-09-04T00:28:06.481Z,25.7
2017-09-04T00:29:08.256Z,25.7
2017-09-04T00:30:09.696Z,25.6
2017-09-04T00:31:11.491Z,25.7
2017-09-04T00:32:13.285Z,25.7
2017-09-04T00:33:15.412Z,25.7
2017-09-04T00:34:17.207Z,25.7
2017-09-04T00:35:18.998Z,25.7
2017-09-04T00:36:20.792Z,25.7
2017-09-04T00:37:22.948Z,25.7
2017-09-04T00:38:25.099Z,25.7
2017-09-04T00:39:26.561Z,25.7
2017-09-04T00:40:28.701Z,25.7
2017-09-04T00:41:30.161Z,25.7
2017-09-04T00:42:31.957Z,25.6
2017-09-04T00:43:33.729Z,25.7
2017-09-04T00:44:35.521Z,25.7
2017-09-04T00:45:37.650Z,25.6
2017-09-04T00:46:39.779Z,25.6
2017-09-04T00:47:41.576Z,25.7
2017-09-04T00:48:43.706Z,25.7
2017-09-04T00:49:45.176Z,25.6
2017-09-04T00:50:46.280Z,25.6
2017-09-04T00:51:47.381Z,25.7
2017-09-04T00:52:48.151Z,25.6
2017-09-04T00:53:49.940Z,25.7
2017-09-04T00:54:52.084Z,25.7
2017-09-04T00:55:53.189Z,25.6
2017-09-04T00:56:54.981Z,25.6
2017-09-04T00:57:57.124Z,25.6
2017-09-04T00:58:58.226Z,25.6
2017-09-04T00:59:59.999Z,25.7
2017-09-04T01:01:02.129Z,25.6
2017-09-04T01:02:04.257Z,25.6
2017-09-04T01:03:05.399Z,25.6
2017-09-04T01:04:07.190Z,25.7
2017-09-04T01:05:08.295Z,25.7
2017-09-04T01:06:10.424Z,25.7
2017-09-04T01:07:12.216Z,25.6
2017-09-04T01:08:14.345Z,25.6
2017-09-04T01:09:15.448Z,25.6
2017-09-04T01:10:17.590Z,25.6
2017-09-04T01:11:19.372Z,25.6
2017-09-04T01:12:21.168Z,25.6
2017-09-04T01:13:22.964Z,25.6
2017-09-04T01:14:24.734Z,25.7
2017-09-04T01:15:26.174Z,25.6
2017-09-04T01:16:27.637Z,25.6
2017-09-04T01:17:29.073Z,25.7
2017-09-04T01:18:31.200Z,25.6
2017-09-04T01:19:32.639Z,25.7
2017-09-04T01:20:34.409Z,25.6
2017-09-04T01:21:36.539Z,25.7
2017-09-04T01:22:38.668Z,25.6
2017-09-04T01:23:40.462Z,25.6
2017-09-04T01:24:42.256Z,25.5
2017-09-04T01:25:43.696Z,25.7
2017-09-04T01:26:45.826Z,25.6
2017-09-04T01:27:47.619Z,25.6
2017-09-04T01:28:49.390Z,25.6
2017-09-04T01:29:51.185Z,25.6
2017-09-04T01:30:52.974Z,25.6
2017-09-04T01:31:54.432Z,25.6
2017-09-04T01:32:55.867Z,25.7
2017-09-04T01:33:57.661Z,25.5
2017-09-04T01:34:59.789Z,25.6
2017-09-04T01:36:01.917Z,25.6
2017-09-04T01:37:03.358Z,25.6
2017-09-04T01:38:05.153Z,25.7
2017-09-04T01:39:06.953Z,25.6
2017-09-04T01:40:09.075Z,25.6
2017-09-04T01:41:11.204Z,25.6
2017-09-04T01:42:12.643Z,25.6
2017-09-04T01:43:14.436Z,25.6
2017-09-04T01:44:15.897Z,25.6
2017-09-04T01:45:17.670Z,25.5
2017-09-04T01:46:19.799Z,25.6
2017-09-04T01:47:21.594Z,25.5
2017-09-04T01:48:23.030Z,25.6
2017-09-04T01:49:25.155Z,25.6
2017-09-04T01:50:26.951Z,25.6
2017-09-04T01:51:28.421Z,25.6
2017-09-04T01:52:30.219Z,25.6
2017-09-04T01:53:32.349Z,25.5
2017-09-04T01:54:34.144Z,25.6
2017-09-04T01:55:35.585Z,25.6
2017-09-04T01:56:37.025Z,25.6
2017-09-04T01:57:38.849Z,25.6
2017-09-04T01:58:40.966Z,25.5
2017-09-04T01:59:42.071Z,25.5
2017-09-04T02:00:44.195Z,25.5
2017-09-04T02:01:46.332Z,25.5
2017-09-04T02:02:47.773Z,25.6
2017-09-04T02:03:49.899Z,25.5
2017-09-04T02:04:51.336Z,25.5
2017-09-04T02:05:53.130Z,25.5
2017-09-04T02:06:54.923Z,25.5
2017-09-04T02:07:56.719Z,25.5
2017-09-04T02:08:58.849Z,25.6
2017-09-04T02:10:00.977Z,25.5
2017-09-04T02:11:02.778Z,25.5
2017-09-04T02:12:04.217Z,25.5
2017-09-04T02:13:05.658Z,25.5
2017-09-04T02:14:07.453Z,25.5
2017-09-04T02:15:09.579Z,25.5
2017-09-04T02:16:11.376Z,25.5
2017-09-04T02:17:12.837Z,25.5
2017-09-04T02:18:14.987Z,25.5
2017-09-04T02:19:16.766Z,25.5
2017-09-04T02:20:18.558Z,25.5
2017-09-04T02:21:20.700Z,25.5
2017-09-04T02:22:22.828Z,25.5
2017-09-04T02:23:24.989Z,25.5
2017-09-04T02:24:26.766Z,25.5
2017-09-04T02:25:28.898Z,25.6
2017-09-04T02:26:30.336Z,25.6
2017-09-04T02:27:31.796Z,25.5
2017-09-04T02:28:33.242Z,25.6
2017-09-04T02:29:34.701Z,25.6
2017-09-04T02:30:36.497Z,25.5
2017-09-04T02:31:38.291Z,25.5
2017-09-04T02:32:40.061Z,25.5
2017-09-04T02:33:42.190Z,25.6
2017-09-04T02:34:43.626Z,25.5
2017-09-04T02:35:45.422Z,25.5
2017-09-04T02:36:46.884Z,25.4
2017-09-04T02:37:48.659Z,25.5
2017-09-04T02:38:50.455Z,25.5
2017-09-04T02:39:52.269Z,25.5
2017-09-04T02:40:54.063Z,25.6
2017-09-04T02:41:55.528Z,25.5
2017-09-04T02:42:57.323Z,25.5
2017-09-04T02:43:58.423Z,25.5
2017-09-04T02:44:59.529Z,25.5
2017-09-04T02:46:01.303Z,25.5
2017-09-04T02:47:02.742Z,25.5
2017-09-04T02:48:04.513Z,25.5
2017-09-04T02:49:06.306Z,25.5
2017-09-04T02:50:08.099Z,25.5
2017-09-04T02:51:10.226Z,25.5
2017-09-04T02:52:11.665Z,25.5
2017-09-04T02:53:13.439Z,25.5
2017-09-04T02:54:15.575Z,25.5
2017-09-04T02:55:17.033Z,25.6
2017-09-04T02:56:19.182Z,25.5
2017-09-04T02:57:21.303Z,25.5
2017-09-04T02:58:23.097Z,25.5
2017-09-04T02:59:25.226Z,25.4
2017-09-04T03:00:27.354Z,25.4
2017-09-04T03:01:29.127Z,25.5
2017-09-04T03:02:30.927Z,25.5
2017-09-04T03:03:33.076Z,25.5
2017-09-04T03:04:34.177Z,25.5
2017-09-04T03:05:34.947Z,25.5
2017-09-04T03:06:37.076Z,25.5
2017-09-04T03:07:39.206Z,25.5
2017-09-04T03:08:41.334Z,25.5
2017-09-04T03:09:43.127Z,25.5
2017-09-04T03:10:44.921Z,25.5
2017-09-04T03:11:46.716Z,25.5
2017-09-04T03:12:48.162Z,25.5
2017-09-04T03:13:49.600Z,25.5
2017-09-04T03:14:51.396Z,25.5
2017-09-04T03:15:53.525Z,25.5
2017-09-04T03:16:55.297Z,25.4
2017-09-04T03:17:57.090Z,25.5
2017-09-04T03:18:59.218Z,25.5
2017-09-04T03:20:01.349Z,25.5
2017-09-04T03:21:02.787Z,25.5
2017-09-04T03:22:04.916Z,25.5
2017-09-04T03:23:06.711Z,25.5
2017-09-04T03:24:08.840Z,25.5
2017-09-04T03:25:10.970Z,25.5
2017-09-04T03:26:12.762Z,25.4
2017-09-04T03:27:14.555Z,25.5
2017-09-04T03:28:16.017Z,25.5
2017-09-04T03:29:17.455Z,25.5
2017-09-04T03:30:18.893Z,25.4
2017-09-04T03:31:20.338Z,25.5
2017-09-04T03:32:22.130Z,25.4
2017-09-04T03:33:23.593Z,25.5
2017-09-04T03:34:25.385Z,25.4
2017-09-04T03:35:27.513Z,25.5
2017-09-04T03:36:29.309Z,25.4
2017-09-04T03:37:30.772Z,25.5
2017-09-04T03:38:32.903Z,25.5
2017-09-04T03:39:34.674Z,25.5
2017-09-04T03:40:36.111Z,25.4
2017-09-04T03:41:38.240Z,25.5
2017-09-04T03:42:40.015Z,25.4
2017-09-04T03:43:41.828Z,25.5
2017-09-04T03:44:42.930Z,25.5
2017-09-04T03:45:45.057Z,25.4
2017-09-04T03:46:46.182Z,25.5
2017-09-04T03:47:47.952Z,25.4
2017-09-04T03:48:49.078Z,25.5
2017-09-04T03:49:50.869Z,25.5
2017-09-04T03:50:52.666Z,25.4
2017-09-04T03:51:54.463Z,25.4
2017-09-04T03:52:55.568Z,25.5
2017-09-04T03:53:57.040Z,25.5
2017-09-04T03:54:58.483Z,25.4
2017-09-04T03:56:00.263Z,25.5
2017-09-04T03:57:02.055Z,25.4
2017-09-04T03:58:03.852Z,25.5
2017-09-04T03:59:05.980Z,25.5
2017-09-04T04:00:08.112Z,25.4
2017-09-04T04:01:09.909Z,25.5
2017-09-04T04:02:11.028Z,25.4
2017-09-04T04:03:12.151Z,25.5
2017-09-04T04:04:13.947Z,25.4
2017-09-04T04:05:15.406Z,25.5
2017-09-04T04:06:17.203Z,25.4
2017-09-04T04:07:18.640Z,25.4
2017-09-04T04:08:20.077Z,25.4
2017-09-04T04:09:21.553Z,25.5
2017-09-04T04:10:23.021Z,25.4
2017-09-04T04:11:24.806Z,25.5
2017-09-04T04:12:26.600Z,25.5
2017-09-04T04:13:28.373Z,25.4
2017-09-04T04:14:30.501Z,25.5
2017-09-04T04:15:32.627Z,25.4
2017-09-04T04:16:33.728Z,25.4
2017-09-04T04:17:35.525Z,25.5
2017-09-04T04:18:37.022Z,25.5
2017-09-04T04:19:38.799Z,25.5
2017-09-04T04:20:40.572Z,25.4
2017-09-04T04:21:42.015Z,25.5
2017-09-04T04:22:43.797Z,25.5
2017-09-04T04:23:45.586Z,25.4
2017-09-04T04:24:47.025Z,25.4
2017-09-04T04:25:49.153Z,25.5
2017-09-04T04:26:50.261Z,25.4
2017-09-04T04:27:52.392Z,25.5
2017-09-04T04:28:54.519Z,25.5
2017-09-04T04:29:55.982Z,25.4
2017-09-04T04:30:57.778Z,25.4
2017-09-04T04:31:59.609Z,25.4
2017-09-04T04:33:01.738Z,25.4
2017-09-04T04:34:03.513Z,25.4
2017-09-04T04:35:05.305Z,25.4
2017-09-04T04:36:06.411Z,25.5
2017-09-04T04:37:07.515Z,25.4
2017-09-04T04:38:09.290Z,25.5
2017-09-04T04:39:11.418Z,25.4
2017-09-04T04:40:13.546Z,25.4
2017-09-04T04:41:14.984Z,25.5
2017-09-04T04:42:16.780Z,25.4
2017-09-04T04:43:18.910Z,25.4
2017-09-04T04:44:20.712Z,25.5
2017-09-04T04:45:22.509Z,25.5
2017-09-04T04:46:23.943Z,25.4
2017-09-04T04:47:25.736Z,25.4
2017-09-04T04:48:27.509Z,25.4
2017-09-04T04:49:29.303Z,25.5
2017-09-04T04:50:31.432Z,25.4
2017-09-04T04:51:33.562Z,25.5
2017-09-04T04:52:35.354Z,25.4
2017-09-04T04:53:36.821Z,25.4
2017-09-04T04:54:38.612Z,25.4
2017-09-04T04:55:40.078Z,25.3
2017-09-04T04:56:41.880Z,25.4
2017-09-04T04:57:44.010Z,25.5
2017-09-04T04:58:45.478Z,25.4
2017-09-04T04:59:47.269Z,25.4
2017-09-04T05:00:49.405Z,25.4
2017-09-04T05:01:51.535Z,25.4
2017-09-04T05:02:53.331Z,25.4
2017-09-04T05:03:55.127Z,25.5
2017-09-04T05:04:57.263Z,25.4
2017-09-04T05:05:58.719Z,25.5
2017-09-04T05:07:00.515Z,25.4
2017-09-04T05:08:02.310Z,25.5
2017-09-04T05:09:03.425Z,25.4
2017-09-04T05:10:05.215Z,25.5
2017-09-04T05:11:06.337Z,25.5
2017-09-04T05:12:08.110Z,25.5
2017-09-04T05:13:09.901Z,25.4
2017-09-04T05:14:11.343Z,25.5
2017-09-04T05:15:13.134Z,25.4
2017-09-04T05:16:15.264Z,25.4
2017-09-04T05:17:16.703Z,25.5
2017-09-04T05:18:18.162Z,25.5
2017-09-04T05:19:19.954Z,25.5
2017-09-04T05:20:20.724Z,25.5
2017-09-04T05:21:22.520Z,25.4
2017-09-04T05:22:24.325Z,25.5
2017-09-04T05:23:26.453Z,25.4
2017-09-04T05:24:28.580Z,25.5
2017-09-04T05:25:30.375Z,25.5
2017-09-04T05:26:31.839Z,25.5
2017-09-04T05:27:33.634Z,25.4
2017-09-04T05:28:35.091Z,25.4
2017-09-04T05:29:36.549Z,25.4
2017-09-04T05:30:38.350Z,25.5
2017-09-04T05:31:40.476Z,25.4
2017-09-04T05:32:41.915Z,25.5
2017-09-04T05:33:44.046Z,25.5
2017-09-04T05:34:46.175Z,25.5
2017-09-04T05:35:46.943Z,25.5
2017-09-04T05:36:49.069Z,25.5
2017-09-04T05:37:51.219Z,25.4
2017-09-04T05:38:53.349Z,25.4
2017-09-04T05:39:55.143Z,25.4
2017-09-04T05:40:57.279Z,25.4
2017-09-04T05:41:59.068Z,25.4
2017-09-04T05:43:00.862Z,25.4
2017-09-04T05:44:02.996Z,25.5
2017-09-04T05:45:05.125Z,25.4
2017-09-04T05:46:06.921Z,25.4
2017-09-04T05:47:08.381Z,25.4
2017-09-04T05:48:10.275Z,25.5
2017-09-04T05:49:11.713Z,25.4
2017-09-04T05:50:13.510Z,25.5
2017-09-04T05:51:15.018Z,25.5
2017-09-04T05:52:17.160Z,25.4
2017-09-04T05:53:18.952Z,25.4
2017-09-04T05:54:21.083Z,25.5
2017-09-04T05:55:22.519Z,25.4
2017-09-04T05:56:23.626Z,25.4
2017-09-04T05:57:25.756Z,25.4
2017-09-04T05:58:27.884Z,25.5
2017-09-04T05:59:29.661Z,25.4
2017-09-04T06:00:31.469Z,25.4
2017-09-04T06:01:32.929Z,25.5
2017-09-04T06:02:33.698Z,25.4
2017-09-04T06:03:34.471Z,25.4
2017-09-04T06:04:35.909Z,25.4
2017-09-04T06:05:37.369Z,25.5
2017-09-04T06:06:39.165Z,25.3
2017-09-04T06:07:40.630Z,25.3
2017-09-04T06:08:41.403Z,25.4
2017-09-04T06:09:43.199Z,25.5
2017-09-04T06:10:44.990Z,25.4
2017-09-04T06:11:46.789Z,25.4
2017-09-04T06:12:48.583Z,25.5
2017-09-04T06:13:49.685Z,25.5
2017-09-04T06:14:50.793Z,25.5
2017-09-04T06:15:51.897Z,25.5
2017-09-04T06:16:54.024Z,25.4
2017-09-04T06:17:55.817Z,25.4
2017-09-04T06:18:57.254Z,25.4
2017-09-04T06:19:58.690Z,25.4
2017-09-04T06:21:00.486Z,25.5
2017-09-04T06:22:01.947Z,25.5
2017-09-04T06:23:03.392Z,25.5
2017-09-04T06:24:05.162Z,25.5
2017-09-04T06:25:06.936Z,25.4
2017-09-04T06:26:08.401Z,25.4
2017-09-04T06:27:10.196Z,25.5
2017-09-04T06:28:11.658Z,25.3
2017-09-04T06:29:13.502Z,25.4
2017-09-04T06:30:14.941Z,25.4
2017-09-04T06:31:16.049Z,25.4
2017-09-04T06:32:16.828Z,25.5
2017-09-04T06:33:18.623Z,25.5
2017-09-04T06:34:20.751Z,25.5
2017-09-04T06:35:22.551Z,25.5
2017-09-04T06:36:24.325Z,25.6
2017-09-04T06:37:25.763Z,25.5
2017-09-04T06:38:27.557Z,25.5
2017-09-04T06:39:29.021Z,25.6
2017-09-04T06:40:30.124Z,25.5
2017-09-04T06:41:31.923Z,25.6
2017-09-04T06:42:33.729Z,25.5
2017-09-04T06:43:35.861Z,25.5
2017-09-04T06:44:37.632Z,25.5
2017-09-04T06:45:39.410Z,25.5
2017-09-04T06:46:41.544Z,25.5
2017-09-04T06:47:43.678Z,25.5
2017-09-04T06:48:45.816Z,25.4
2017-09-04T06:49:47.593Z,25.5
2017-09-04T06:50:48.701Z,25.5
2017-09-04T06:51:50.829Z,25.5
2017-09-04T06:52:52.268Z,25.6
2017-09-04T06:53:54.066Z,25.5
2017-09-04T06:54:55.865Z,25.5
2017-09-04T06:55:57.323Z,25.5
2017-09-04T06:56:59.123Z,25.5
2017-09-04T06:58:01.252Z,25.6
2017-09-04T06:59:03.379Z,25.6
2017-09-04T07:00:05.226Z,25.5
2017-09-04T07:01:06.664Z,25.5
2017-09-04T07:02:08.463Z,25.5
2017-09-04T07:03:09.257Z,25.5
2017-09-04T07:04:11.022Z,25.5
2017-09-04T07:05:13.153Z,25.5
2017-09-04T07:06:14.611Z,25.5
2017-09-04T07:07:16.412Z,25.5
2017-09-04T07:08:17.855Z,25.5
2017-09-04T07:09:19.627Z,25.5
2017-09-04T07:10:21.758Z,25.5
2017-09-04T07:11:23.552Z,25.5
2017-09-04T07:12:25.014Z,25.5
2017-09-04T07:13:26.818Z,25.6
2017-09-04T07:14:28.614Z,25.5
2017-09-04T07:15:30.416Z,25.5
2017-09-04T07:16:32.549Z,25.5
2017-09-04T07:17:34.341Z,25.6
2017-09-04T07:18:36.153Z,25.6
2017-09-04T07:19:38.286Z,25.6
2017-09-04T07:20:40.517Z,25.6
2017-09-04T07:21:41.287Z,25.6
2017-09-04T07:22:43.087Z,25.6
2017-09-04T07:23:44.530Z,25.7
2017-09-04T07:24:46.330Z,25.6
2017-09-04T07:25:48.124Z,25.6
2017-09-04T07:26:50.256Z,25.7
2017-09-04T07:27:52.062Z,25.6
2017-09-04T07:28:53.839Z,25.7
2017-09-04T07:29:55.297Z,25.6
2017-09-04T07:30:56.423Z,25.6
2017-09-04T07:31:57.866Z,25.6
2017-09-04T07:32:59.658Z,25.7
2017-09-04T07:34:01.453Z,25.7
2017-09-04T07:35:03.247Z,25.7
2017-09-04T07:36:04.711Z,25.6
2017-09-04T07:37:06.152Z,25.7
2017-09-04T07:38:07.592Z,25.6
2017-09-04T07:39:09.055Z,25.7
2017-09-04T07:40:10.495Z,25.7
2017-09-04T07:41:12.289Z,25.7
2017-09-04T07:42:14.086Z,25.6
2017-09-04T07:43:15.884Z,25.7
2017-09-04T07:44:18.037Z,25.6
2017-09-04T07:45:19.823Z,25.6
2017-09-04T07:46:21.955Z,25.7
2017-09-04T07:47:24.087Z,25.7
2017-09-04T07:48:26.224Z,25.7
2017-09-04T07:49:28.353Z,25.7
2017-09-04T07:50:30.490Z,25.7
2017-09-04T07:51:32.283Z,25.7
2017-09-04T07:52:33.748Z,25.7
2017-09-04T07:53:35.189Z,25.8
2017-09-04T07:54:36.983Z,25.8
2017-09-04T07:55:39.114Z,25.8
2017-09-04T07:56:40.554Z,25.8
2017-09-04T07:57:42.356Z,25.7
2017-09-04T07:58:43.794Z,25.8
2017-09-04T07:59:45.593Z,25.8
2017-09-04T08:00:47.724Z,25.9
2017-09-04T08:01:49.521Z,25.9
2017-09-04T08:02:51.317Z,25.8
2017-09-04T08:03:53.114Z,25.8
2017-09-04T08:04:55.245Z,25.9
2017-09-04T08:05:57.078Z,25.8
2017-09-04T08:06:58.565Z,25.9
2017-09-04T08:08:00.363Z,25.8
2017-09-04T08:09:02.158Z,25.8
2017-09-04T08:10:03.601Z,25.9
2017-09-04T08:11:05.396Z,25.8
2017-09-04T08:12:06.500Z,25.8
2017-09-04T08:13:07.939Z,25.9
2017-09-04T08:14:09.381Z,25.8
2017-09-04T08:15:10.819Z,25.9
2017-09-04T08:16:12.615Z,25.9
2017-09-04T08:17:14.750Z,25.8
2017-09-04T08:18:16.885Z,25.9
2017-09-04T08:19:18.348Z,25.8
2017-09-04T08:20:19.807Z,25.9
2017-09-04T08:21:21.255Z,25.8
2017-09-04T08:22:22.693Z,25.9
2017-09-04T08:23:24.140Z,25.9
2017-09-04T08:24:25.610Z,25.8
2017-09-04T08:25:27.049Z,25.8
2017-09-04T08:26:28.821Z,25.9
2017-09-04T08:27:30.619Z,25.9
2017-09-04T08:28:32.124Z,25.8
2017-09-04T08:29:33.924Z,25.9
2017-09-04T08:30:35.436Z,25.9
2017-09-04T08:31:37.752Z,25.9
2017-09-04T08:32:39.551Z,25.8
2017-09-04T08:33:41.346Z,25.9
2017-09-04T08:34:42.947Z,25.9
2017-09-04T08:35:45.078Z,25.9
2017-09-04T08:36:46.881Z,25.9
2017-09-04T08:37:49.007Z,25.9
2017-09-04T08:38:50.825Z,25.9
2017-09-04T08:39:52.269Z,25.9
2017-09-04T08:40:54.405Z,25.9
2017-09-04T08:41:56.205Z,25.9
2017-09-04T08:42:57.313Z,25.9
2017-09-04T08:43:59.096Z,25.9
2017-09-04T08:45:00.899Z,25.9
2017-09-04T08:46:02.708Z,25.9
2017-09-04T08:47:04.483Z,25.9
2017-09-04T08:48:06.283Z,26
2017-09-04T08:49:07.444Z,26
2017-09-04T08:50:09.246Z,25.9
2017-09-04T08:51:11.044Z,26.1
2017-09-04T08:52:12.223Z,26
2017-09-04T08:53:14.068Z,26.1
2017-09-04T08:54:15.532Z,25.9
2017-09-04T08:55:16.993Z,26
2017-09-04T08:56:18.436Z,26
2017-09-04T08:57:19.878Z,25.9
2017-09-04T08:58:21.321Z,26
2017-09-04T08:59:23.458Z,26
2017-09-04T09:00:25.590Z,26
2017-09-04T09:01:27.394Z,26
2017-09-04T09:02:28.862Z,26
2017-09-04T09:03:30.325Z,26
2017-09-04T09:04:32.128Z,26.1
2017-09-04T09:05:33.929Z,26
2017-09-04T09:06:36.060Z,26
2017-09-04T09:07:38.200Z,26.1
2017-09-04T09:08:39.997Z,26
2017-09-04T09:09:41.793Z,26.1
2017-09-04T09:10:43.262Z,26.2
2017-09-04T09:11:44.703Z,26.1
2017-09-04T09:12:46.501Z,26.2
2017-09-04T09:13:47.672Z,26.1
2017-09-04T09:14:49.470Z,26.1
2017-09-04T09:15:50.933Z,26.1
2017-09-04T09:16:52.730Z,26.1
2017-09-04T09:17:54.531Z,26.1
2017-09-04T09:18:56.331Z,26
2017-09-04T09:19:58.463Z,26.1
2017-09-04T09:20:59.569Z,26.1
2017-09-04T09:22:01.705Z,26.1
2017-09-04T09:23:03.170Z,26.2
2017-09-04T09:24:05.304Z,26.2
2017-09-04T09:25:07.080Z,26.1
2017-09-04T09:26:08.878Z,26.2
2017-09-04T09:27:11.009Z,26.2
2017-09-04T09:28:13.142Z,26.2
2017-09-04T09:29:14.923Z,26.1
2017-09-04T09:30:17.055Z,26.1
2017-09-04T09:31:18.834Z,26.1
2017-09-04T09:32:20.280Z,26.2
2017-09-04T09:33:21.741Z,26.1
2017-09-04T09:34:23.524Z,26.1
2017-09-04T09:35:25.382Z,26.2
2017-09-04T09:36:27.518Z,26.1
2017-09-04T09:37:29.336Z,26.1
2017-09-04T09:38:31.132Z,26.2
2017-09-04T09:39:32.909Z,26.2
2017-09-04T09:40:35.043Z,26.1
2017-09-04T09:41:36.844Z,26.1
2017-09-04T09:42:38.305Z,26.1
2017-09-04T09:43:39.460Z,26.1
2017-09-04T09:44:41.255Z,26.2
2017-09-04T09:45:42.027Z,26.1
2017-09-04T09:46:43.827Z,26.2
2017-09-04T09:47:45.613Z,26.2
2017-09-04T09:48:46.740Z,26.1
2017-09-04T09:49:47.847Z,26.2
2017-09-04T09:50:49.311Z,26.1
2017-09-04T09:51:51.111Z,26.1
2017-09-04T09:52:52.920Z,26.2
2017-09-04T09:53:54.371Z,26.1
2017-09-04T09:54:56.168Z,26
2017-09-04T09:55:57.635Z,26.1
2017-09-04T09:56:59.408Z,26.1
2017-09-04T09:58:01.205Z,26.1
2017-09-04T09:59:03.058Z,26.2
2017-09-04T10:00:04.853Z,26.2
2017-09-04T10:01:07.002Z,26.2
2017-09-04T10:02:08.123Z,26.2
2017-09-04T10:03:09.919Z,26.2
2017-09-04T10:04:11.696Z,26.2
2017-09-04T10:05:13.501Z,26.2
2017-09-04T10:06:14.941Z,26.3
2017-09-04T10:07:17.077Z,26.3
2017-09-04T10:08:18.859Z,26.2
2017-09-04T10:09:20.992Z,26.2
2017-09-04T10:10:22.899Z,26.3
2017-09-04T10:11:24.679Z,26.3
2017-09-04T10:12:26.185Z,26.2
2017-09-04T10:13:28.317Z,26.3
2017-09-04T10:14:29.780Z,26.3
2017-09-04T10:15:31.577Z,26.4
2017-09-04T10:16:33.043Z,26.4
2017-09-04T10:17:34.847Z,26.3
2017-09-04T10:18:36.307Z,26.3
2017-09-04T10:19:38.082Z,26.3
2017-09-04T10:20:39.882Z,26.3
2017-09-04T10:21:41.324Z,26.3
2017-09-04T10:22:43.101Z,26.3
2017-09-04T10:23:45.235Z,26.3
2017-09-04T10:24:47.373Z,26.3
2017-09-04T10:25:49.505Z,26.4
2017-09-04T10:26:51.306Z,26.3
2017-09-04T10:27:53.085Z,26.3
2017-09-04T10:28:54.534Z,26.3
2017-09-04T10:29:56.668Z,26.3
2017-09-04T10:30:58.108Z,26.3
2017-09-04T10:31:59.568Z,26.3
2017-09-04T10:33:01.014Z,26.3
2017-09-04T10:34:02.817Z,26.3
2017-09-04T10:35:04.699Z,26.4
2017-09-04T10:36:06.831Z,26.4
2017-09-04T10:37:08.983Z,26.4
2017-09-04T10:38:11.123Z,26.4
2017-09-04T10:39:12.899Z,26.3
2017-09-04T10:40:15.034Z,26.3
2017-09-04T10:41:16.830Z,26.4
2017-09-04T10:42:18.634Z,26.4
2017-09-04T10:43:20.434Z,26.4
2017-09-04T10:44:22.230Z,26.5
2017-09-04T10:45:24.026Z,26.4
2017-09-04T10:46:25.824Z,26.4
2017-09-04T10:47:27.630Z,26.4
2017-09-04T10:48:29.425Z,26.5
2017-09-04T10:49:31.227Z,26.5
2017-09-04T10:50:33.024Z,26.4
2017-09-04T10:51:34.821Z,26.5
2017-09-04T10:52:36.615Z,26.4
2017-09-04T10:53:38.751Z,26.4
2017-09-04T10:54:40.215Z,26.5
2017-09-04T10:55:41.990Z,26.4
2017-09-04T10:56:42.764Z,26.5
2017-09-04T10:57:44.565Z,26.4
2017-09-04T10:58:46.698Z,26.5
2017-09-04T10:59:48.831Z,26.5
2017-09-04T11:00:50.963Z,26.4
2017-09-04T11:01:52.429Z,26.4
2017-09-04T11:02:54.564Z,26.5
2017-09-04T11:03:56.024Z,26.5
2017-09-04T11:04:57.827Z,26.6
2017-09-04T11:05:59.620Z,26.5
2017-09-04T11:07:01.751Z,26.6
2017-09-04T11:08:03.215Z,26.6
2017-09-04T11:09:05.011Z,26.6
2017-09-04T11:10:07.146Z,26.6
2017-09-04T11:11:08.942Z,26.6
2017-09-04T11:12:11.074Z,26.6
2017-09-04T11:13:13.206Z,26.5
2017-09-04T11:14:14.985Z,26.6
2017-09-04T11:15:17.118Z,26.6
2017-09-04T11:16:18.596Z,26.6
2017-09-04T11:17:20.388Z,26.6
2017-09-04T11:18:22.185Z,26.6
2017-09-04T11:19:23.309Z,26.6
2017-09-04T11:20:24.417Z,26.6
2017-09-04T11:21:25.861Z,26.7
2017-09-04T11:22:27.997Z,26.6
2017-09-04T11:23:29.110Z,26.6
2017-09-04T11:24:31.247Z,26.6
2017-09-04T11:25:33.378Z,26.6
2017-09-04T11:26:34.822Z,26.6
2017-09-04T11:27:36.958Z,26.6
2017-09-04T11:28:39.091Z,26.7
2017-09-04T11:29:40.551Z,26.6
2017-09-04T11:30:42.344Z,26.6
2017-09-04T11:31:44.116Z,26.6
2017-09-04T11:32:45.913Z,26.6
2017-09-04T11:33:47.701Z,26.7
2017-09-04T11:34:49.145Z,26.6
2017-09-04T11:35:50.919Z,26.6
2017-09-04T11:36:52.380Z,26.6
2017-09-04T11:37:53.505Z,26.6
2017-09-04T11:38:55.635Z,26.6
2017-09-04T11:39:57.768Z,26.6
2017-09-04T11:40:59.542Z,26.6
2017-09-04T11:42:01.004Z,26.6
2017-09-04T11:43:02.782Z,26.6
2017-09-04T11:44:04.241Z,26.6
2017-09-04T11:45:06.047Z,26.6
2017-09-04T11:46:07.843Z,26.6
2017-09-04T11:47:09.305Z,26.6
2017-09-04T11:48:11.437Z,26.6
2017-09-04T11:49:13.566Z,26.6
2017-09-04T11:50:15.008Z,26.6
2017-09-04T11:51:16.805Z,26.5
2017-09-04T11:52:18.600Z,26.6
2017-09-04T11:53:20.731Z,26.6
2017-09-04T11:54:22.171Z,26.6
2017-09-04T11:55:23.955Z,26.6
2017-09-04T11:56:25.752Z,26.6
2017-09-04T11:57:27.190Z,26.7
2017-09-04T11:58:28.653Z,26.7
2017-09-04T11:59:30.446Z,26.6
2017-09-04T12:00:31.555Z,26.6
2017-09-04T12:01:32.706Z,26.6
2017-09-04T12:02:34.196Z,26.7
2017-09-04T12:03:35.989Z,26.7
2017-09-04T12:04:37.788Z,26.6
2017-09-04T12:05:39.565Z,26.7
2017-09-04T12:06:41.002Z,26.6
2017-09-04T12:07:42.467Z,26.6
2017-09-04T12:08:44.243Z,26.6
2017-09-04T12:09:45.712Z,26.7
2017-09-04T12:10:46.835Z,26.6
2017-09-04T12:11:48.612Z,26.6
2017-09-04T12:12:50.054Z,26.6
2017-09-04T12:13:52.186Z,26.6
2017-09-04T12:14:53.982Z,26.6
2017-09-04T12:15:55.450Z,26.6
2017-09-04T12:16:57.243Z,26.6
2017-09-04T12:17:58.707Z,26.6
2017-09-04T12:19:00.840Z,26.6
2017-09-04T12:20:02.286Z,26.7
2017-09-04T12:21:04.060Z,26.6
2017-09-04T12:22:05.524Z,26.6
2017-09-04T12:23:06.632Z,26.6
2017-09-04T12:24:08.408Z,26.6
2017-09-04T12:25:10.541Z,26.6
2017-09-04T12:26:12.337Z,26.6
2017-09-04T12:27:13.779Z,26.7
2017-09-04T12:28:15.343Z,26.6
2017-09-04T12:29:17.477Z,26.7
2017-09-04T12:30:19.272Z,26.7
2017-09-04T12:31:21.073Z,26.7
2017-09-04T12:32:23.207Z,26.6
2017-09-04T12:33:25.001Z,26.7
2017-09-04T12:34:26.496Z,26.7
2017-09-04T12:35:28.290Z,26.6
2017-09-04T12:36:29.730Z,26.6
2017-09-04T12:37:31.170Z,26.6
2017-09-04T12:38:33.300Z,26.6
2017-09-04T12:39:35.106Z,26.6
2017-09-04T12:40:37.234Z,26.6
2017-09-04T12:41:38.696Z,26.6
2017-09-04T12:42:40.494Z,26.6
2017-09-04T12:43:42.295Z,26.6
2017-09-04T12:44:44.066Z,26.7
2017-09-04T12:45:46.201Z,26.6
2017-09-04T12:46:47.662Z,26.6
2017-09-04T12:47:49.101Z,26.6
2017-09-04T12:48:50.946Z,26.6
2017-09-04T12:49:53.082Z,26.6
2017-09-04T12:50:54.876Z,26.6
2017-09-04T12:51:55.979Z,26.6
2017-09-04T12:52:57.780Z,26.6
2017-09-04T12:53:59.340Z,26.5
2017-09-04T12:55:01.476Z,26.6
2017-09-04T12:56:02.928Z,26.6
2017-09-04T12:57:04.405Z,26.6
2017-09-04T12:58:05.845Z,26.6
2017-09-04T12:59:07.646Z,26.6
2017-09-04T13:00:09.110Z,26.6
2017-09-04T13:01:10.903Z,26.6
2017-09-04T13:02:12.010Z,26.6
2017-09-04T13:03:13.806Z,26.6
2017-09-04T13:04:15.316Z,26.6
2017-09-04T13:05:17.111Z,26.6
2017-09-04T13:06:18.554Z,26.7
2017-09-04T13:07:20.355Z,26.6
2017-09-04T13:08:22.153Z,26.6
2017-09-04T13:09:23.947Z,26.6
2017-09-04T13:10:26.081Z,26.7
2017-09-04T13:11:27.875Z,26.6
2017-09-04T13:12:29.700Z,26.6
2017-09-04T13:13:31.830Z,26.6
2017-09-04T13:14:33.293Z,26.7
2017-09-04T13:15:35.073Z,26.6
2017-09-04T13:16:36.518Z,26.7
2017-09-04T13:17:37.958Z,26.6
2017-09-04T13:18:39.755Z,26.6
2017-09-04T13:19:41.557Z,26.6
2017-09-04T13:20:43.001Z,26.6
2017-09-04T13:21:44.800Z,26.6
2017-09-04T13:22:46.261Z,26.7
2017-09-04T13:23:48.393Z,26.6
2017-09-04T13:24:49.853Z,26.7
2017-09-04T13:25:51.989Z,26.7
2017-09-04T13:26:53.785Z,26.7
2017-09-04T13:27:55.567Z,26.7
2017-09-04T13:28:57.365Z,26.7
2017-09-04T13:29:59.495Z,26.7
2017-09-04T13:31:01.296Z,26.7
2017-09-04T13:32:03.089Z,26.6
2017-09-04T13:33:04.533Z,26.7
2017-09-04T13:34:06.329Z,26.6
2017-09-04T13:35:07.796Z,26.7
2017-09-04T13:36:09.261Z,26.7
2017-09-04T13:37:10.389Z,26.8
2017-09-04T13:38:12.167Z,26.7
2017-09-04T13:39:13.630Z,26.7
2017-09-04T13:40:15.429Z,26.6
2017-09-04T13:41:16.869Z,26.7
2017-09-04T13:42:18.331Z,26.7